LIMF/TRN METAR and TAF weather

Enter ICAO airport designator
Station Type Date Time Source
LIMF METAR 2020/01/21 15:20 UTC NOAA

LIMF 211520Z 18001KT CAVOK 05/M05 Q1039


Station Type Date Time Source
LIMF Decoded METAR 2020/01/21 15:20 UTC NOAA

Torino / Caselle, Italy (LIMF) 45-13N 007-39E 287M
Jan 21, 2020 - 10:20 AM EST / 2020.01.21 1520 UTC
Wind: from the S (180 degrees) at 1 MPH (1 KT):0
Visibility: greater than 7 mile(s):0
Temperature: 41 F (5 C)
Dew Point: 23 F (-5 C)
Relative Humidity: 48%
Pressure (altimeter): 30.68 in. Hg (1039 hPa)
ob: LIMF 211520Z 18001KT CAVOK 05/M05 Q1039
cycle: 15

Station Type Date Time Source
LIMF TAF 2020/01/21 12:25 UTC NOAA

TAF LIMF 211100Z 2112/2212 VRB05KT CAVOK

Example: see airport list